createdAt,value
2023-03-03T00:01:36.699Z,71.80
2023-03-03T00:04:04.318Z,92.23
2023-03-03T00:06:31.831Z,71.07
2023-03-03T00:08:59.400Z,69.40
2023-03-03T00:11:26.917Z,67.03
2023-03-03T00:13:56.290Z,61.33
2023-03-03T00:16:29.908Z,58.00
2023-03-03T00:18:58.104Z,70.53
2023-03-03T00:21:40.850Z,65.83
2023-03-03T00:24:40.830Z,67.60
2023-03-03T00:27:30.606Z,74.13
2023-03-03T00:29:59.139Z,78.97
2023-03-03T00:32:38.834Z,84.63
2023-03-03T00:35:23.920Z,69.17
2023-03-03T00:38:01.426Z,71.73
2023-03-03T00:40:36.764Z,90.07
2023-03-03T00:43:15.821Z,85.17
2023-03-03T00:45:45.966Z,74.93
2023-03-03T00:48:22.628Z,75.37
2023-03-03T00:50:50.255Z,83.83
2023-03-03T00:53:19.496Z,78.80
2023-03-03T00:55:47.964Z,55.37
2023-03-03T00:58:15.553Z,71.70
2023-03-03T01:00:43.161Z,76.20
2023-03-03T01:03:15.331Z,96.30
2023-03-03T01:05:42.930Z,84.30
2023-03-03T01:08:10.938Z,79.27
2023-03-03T01:10:41.599Z,82.17
2023-03-03T01:13:09.214Z,73.57
2023-03-03T01:15:37.055Z,110.37
2023-03-03T01:18:04.677Z,111.07
2023-03-03T01:20:32.374Z,77.73
2023-03-03T01:23:00.006Z,66.93
2023-03-03T01:25:27.701Z,94.70
2023-03-03T01:27:55.489Z,82.70
2023-03-03T01:30:23.089Z,96.57
2023-03-03T01:32:50.674Z,87.27
2023-03-03T01:35:18.478Z,72.97
2023-03-03T01:37:46.189Z,72.73
2023-03-03T01:40:21.840Z,71.53
2023-03-03T01:42:49.409Z,72.33
2023-03-03T01:45:16.887Z,64.80
2023-03-03T01:47:47.798Z,104.10
2023-03-03T01:50:18.562Z,100.13
2023-03-03T01:52:47.245Z,83.63
2023-03-03T01:55:18.319Z,71.73
2023-03-03T01:57:48.934Z,73.03
2023-03-03T02:00:17.618Z,56.50
2023-03-03T02:02:46.440Z,77.93
2023-03-03T02:05:15.451Z,82.17
2023-03-03T02:07:43.108Z,70.63
2023-03-03T02:10:14.829Z,89.40
2023-03-03T02:12:53.489Z,86.63
2023-03-03T02:15:21.168Z,106.17
2023-03-03T02:17:50.300Z,77.47
2023-03-03T02:20:39.753Z,94.03
2023-03-03T02:23:22.612Z,100.67
2023-03-03T02:25:50.177Z,75.43
2023-03-03T02:28:17.806Z,68.63
2023-03-03T02:30:45.370Z,82.73
2023-03-03T02:33:12.926Z,64.03
2023-03-03T02:35:41.095Z,88.20
2023-03-03T02:38:14.706Z,61.87
2023-03-03T02:40:45.857Z,82.63
2023-03-03T02:43:13.389Z,57.00
2023-03-03T02:45:44.644Z,85.53
2023-03-03T02:48:12.386Z,63.13
2023-03-03T02:50:40.011Z,72.70
2023-03-03T02:53:07.587Z,78.60
2023-03-03T02:55:35.085Z,69.73
2023-03-03T02:58:02.702Z,56.03
2023-03-03T03:00:30.237Z,70.43
2023-03-03T03:02:57.822Z,84.60
2023-03-03T03:05:25.314Z,73.03
2023-03-03T03:07:52.909Z,63.57
2023-03-03T03:10:20.468Z,77.73
2023-03-03T03:12:48.007Z,91.53
2023-03-03T03:15:15.496Z,92.03
2023-03-03T03:17:43.075Z,81.53
2023-03-03T03:20:10.871Z,81.67
2023-03-03T03:22:38.421Z,50.73
2023-03-03T03:25:06.089Z,70.47
2023-03-03T03:27:33.657Z,54.70
2023-03-03T03:30:01.200Z,65.40
2023-03-03T03:32:28.877Z,79.63
2023-03-03T03:34:56.577Z,81.20
2023-03-03T03:37:24.220Z,81.87
2023-03-03T03:39:51.850Z,54.23
2023-03-03T03:42:19.448Z,73.53
2023-03-03T03:44:47.051Z,87.50
2023-03-03T03:47:14.589Z,67.97
2023-03-03T03:49:42.056Z,79.33
2023-03-03T03:52:09.599Z,65.47
2023-03-03T03:54:37.090Z,87.97
2023-03-03T03:57:04.679Z,82.10
2023-03-03T03:59:32.300Z,77.73
2023-03-03T04:01:59.955Z,70.87
2023-03-03T04:04:27.504Z,104.13
2023-03-03T04:06:55.086Z,80.77
2023-03-03T04:09:22.648Z,74.63
2023-03-03T04:11:50.250Z,79.93
2023-03-03T04:14:17.784Z,85.23
2023-03-03T04:16:45.334Z,85.63
2023-03-03T04:19:12.869Z,80.63
2023-03-03T04:21:40.418Z,69.07
2023-03-03T04:24:08.078Z,67.63
2023-03-03T04:26:35.687Z,95.13
2023-03-03T04:29:03.163Z,83.97
2023-03-03T04:31:30.870Z,79.13
2023-03-03T04:33:58.451Z,71.13
2023-03-03T04:36:26.070Z,83.10
2023-03-03T04:38:53.605Z,84.20
2023-03-03T04:41:21.244Z,60.57
2023-03-03T04:43:48.841Z,79.57
2023-03-03T04:46:16.398Z,87.20
2023-03-03T04:48:43.882Z,60.70
2023-03-03T04:51:11.627Z,56.93
2023-03-03T04:53:39.398Z,76.40
2023-03-03T04:56:07.261Z,65.77
2023-03-03T04:58:34.775Z,62.37
2023-03-03T05:01:02.485Z,97.03
2023-03-03T05:03:30.018Z,83.63
2023-03-03T05:05:57.843Z,89.00
2023-03-03T05:08:25.602Z,90.20
2023-03-03T05:10:56.328Z,85.00
2023-03-03T05:13:23.936Z,90.17
2023-03-03T05:15:52.349Z,77.57
2023-03-03T05:18:20.343Z,95.10
2023-03-03T05:20:48.088Z,110.40
2023-03-03T05:23:15.772Z,78.93
2023-03-03T05:25:43.466Z,84.73
2023-03-03T05:28:11.447Z,89.27
2023-03-03T05:30:39.096Z,100.83
2023-03-03T05:33:07.151Z,94.67
2023-03-03T05:35:34.967Z,73.83
2023-03-03T05:38:05.248Z,70.70
2023-03-03T05:40:33.222Z,72.57
2023-03-03T05:43:00.920Z,86.67
2023-03-03T05:45:28.673Z,69.67
2023-03-03T05:47:56.368Z,81.00
2023-03-03T05:50:24.156Z,70.63
2023-03-03T05:52:52.261Z,102.53
2023-03-03T05:55:20.440Z,96.30
2023-03-03T05:57:47.940Z,53.27
2023-03-03T06:00:16.116Z,113.00
2023-03-03T06:02:44.182Z,62.47
2023-03-03T06:05:12.020Z,91.40
2023-03-03T06:07:39.545Z,100.93
2023-03-03T06:10:07.773Z,74.40
2023-03-03T06:12:35.312Z,89.20
2023-03-03T06:15:03.379Z,75.70
2023-03-03T06:17:31.041Z,87.47
2023-03-03T06:19:58.655Z,65.43
2023-03-03T06:22:26.136Z,63.03
2023-03-03T06:24:53.726Z,68.33
2023-03-03T06:27:21.218Z,75.40
2023-03-03T06:29:48.917Z,48.13
2023-03-03T06:32:16.523Z,79.47
2023-03-03T06:34:44.202Z,63.47
2023-03-03T06:37:11.727Z,74.93
2023-03-03T06:39:39.287Z,93.97
2023-03-03T06:42:06.789Z,73.73
2023-03-03T06:44:34.407Z,69.53
2023-03-03T06:47:02.241Z,97.03
2023-03-03T06:49:30.003Z,67.07
2023-03-03T06:51:58.630Z,102.03
2023-03-03T06:54:30.760Z,89.83
2023-03-03T06:57:00.021Z,79.33
2023-03-03T06:59:28.279Z,72.10
2023-03-03T07:01:55.907Z,85.37
2023-03-03T07:04:28.395Z,95.33
2023-03-03T07:06:56.751Z,91.20
2023-03-03T07:09:26.428Z,80.33
2023-03-03T07:12:07.528Z,94.17
2023-03-03T07:14:36.599Z,83.67
2023-03-03T07:17:05.681Z,77.00
2023-03-03T07:19:36.662Z,78.57
2023-03-03T07:22:16.249Z,63.43
2023-03-03T07:24:47.875Z,76.97
2023-03-03T07:27:15.472Z,86.63
2023-03-03T07:29:43.129Z,64.80
2023-03-03T07:32:31.214Z,82.80
2023-03-03T07:34:58.885Z,91.30
2023-03-03T07:37:26.361Z,72.50
2023-03-03T07:39:54.075Z,94.67
2023-03-03T07:42:25.692Z,96.27
2023-03-03T07:44:54.137Z,71.23
2023-03-03T07:47:28.987Z,100.50
2023-03-03T07:49:58.310Z,93.27
2023-03-03T07:52:31.825Z,88.57
2023-03-03T07:55:19.007Z,76.37
2023-03-03T07:57:46.607Z,78.93
2023-03-03T08:00:17.253Z,108.63
2023-03-03T08:02:46.186Z,99.77
2023-03-03T08:05:22.956Z,102.50
2023-03-03T08:07:51.138Z,119.77
2023-03-03T08:10:47.812Z,101.63
2023-03-03T08:13:18.553Z,124.73
2023-03-03T08:15:47.572Z,114.70
2023-03-03T08:18:25.898Z,85.20
2023-03-03T08:20:55.417Z,81.73
2023-03-03T08:23:23.234Z,101.93
2023-03-03T08:25:51.992Z,106.57
2023-03-03T08:28:20.121Z,80.77
2023-03-03T08:30:48.134Z,93.43
2023-03-03T08:33:16.396Z,78.30
2023-03-03T08:35:44.179Z,113.53
2023-03-03T08:38:12.559Z,103.43
2023-03-03T08:40:40.534Z,90.03
2023-03-03T08:43:08.050Z,82.47
2023-03-03T08:45:36.292Z,101.17
2023-03-03T08:48:06.049Z,63.43
2023-03-03T08:50:34.230Z,78.80
2023-03-03T08:53:01.788Z,110.73
2023-03-03T08:55:29.380Z,113.80
2023-03-03T08:57:56.940Z,108.83
2023-03-03T09:00:25.050Z,62.97
2023-03-03T09:02:53.047Z,85.93
2023-03-03T09:05:21.998Z,73.50
2023-03-03T09:07:49.973Z,88.17
2023-03-03T09:10:19.403Z,85.57
2023-03-03T09:12:48.366Z,70.70
2023-03-03T09:15:36.251Z,105.13
2023-03-03T09:18:14.352Z,83.27
2023-03-03T09:20:49.420Z,70.80
2023-03-03T09:23:36.910Z,104.23
2023-03-03T09:26:22.945Z,108.37
2023-03-03T09:28:50.557Z,87.63
2023-03-03T09:31:22.776Z,88.60
2023-03-03T09:33:50.460Z,88.87
2023-03-03T09:36:21.056Z,70.83
2023-03-03T09:38:48.857Z,92.07
2023-03-03T09:41:25.526Z,81.83
2023-03-03T09:43:56.060Z,99.57
2023-03-03T09:46:46.505Z,87.23
2023-03-03T09:49:29.837Z,64.50
2023-03-03T09:52:15.982Z,84.37
2023-03-03T09:54:55.102Z,107.00
2023-03-03T09:57:46.146Z,104.93
2023-03-03T10:00:19.503Z,109.63
2023-03-03T10:02:47.091Z,109.03
2023-03-03T10:05:14.770Z,80.20
2023-03-03T10:07:55.225Z,107.47
2023-03-03T10:10:25.759Z,112.43
2023-03-03T10:12:56.471Z,99.50
2023-03-03T10:15:33.015Z,113.80
2023-03-03T10:18:12.592Z,99.27
2023-03-03T10:20:51.131Z,88.63
2023-03-03T10:23:45.133Z,106.17
2023-03-03T10:26:15.833Z,100.60
2023-03-03T10:28:46.264Z,96.83
2023-03-03T10:31:21.097Z,80.43
2023-03-03T10:33:52.295Z,118.30
2023-03-03T10:36:26.196Z,102.63
2023-03-03T10:39:12.853Z,115.33
2023-03-03T10:41:43.556Z,90.23
2023-03-03T10:44:23.192Z,112.20
2023-03-03T10:47:02.933Z,111.10
2023-03-03T10:49:33.234Z,72.87
2023-03-03T10:52:01.086Z,113.50
2023-03-03T10:54:31.438Z,106.80
2023-03-03T10:57:15.954Z,106.87
2023-03-03T10:59:49.513Z,110.70
2023-03-03T11:02:36.322Z,106.60
2023-03-03T11:05:13.781Z,110.37
2023-03-03T11:07:58.120Z,101.60
2023-03-03T11:10:30.270Z,118.63
2023-03-03T11:13:09.028Z,94.40
2023-03-03T11:15:45.749Z,110.23
2023-03-03T11:18:26.146Z,101.20
2023-03-03T11:20:56.569Z,82.93
2023-03-03T11:23:42.877Z,111.30
2023-03-03T11:26:10.447Z,79.27
2023-03-03T11:28:37.936Z,106.93
2023-03-03T11:31:20.750Z,94.97
2023-03-03T11:33:57.219Z,99.90
2023-03-03T11:36:39.328Z,137.50
2023-03-03T11:39:10.301Z,90.00
2023-03-03T11:41:52.883Z,97.07
2023-03-03T11:44:27.976Z,91.97
2023-03-03T11:47:10.941Z,72.60
2023-03-03T11:49:38.454Z,86.70
2023-03-03T11:52:15.049Z,85.70
2023-03-03T11:54:42.643Z,84.77
2023-03-03T11:57:28.558Z,93.23
2023-03-03T12:00:14.684Z,72.97
2023-03-03T12:03:00.679Z,87.67
2023-03-03T12:05:34.853Z,75.70
2023-03-03T12:08:05.421Z,65.13
2023-03-03T12:10:37.412Z,77.00
2023-03-03T12:13:28.058Z,79.83
2023-03-03T12:16:01.964Z,70.47
2023-03-03T12:18:50.964Z,83.20
2023-03-03T12:21:24.738Z,79.90
2023-03-03T12:24:15.324Z,81.77
2023-03-03T12:27:00.459Z,89.03
2023-03-03T12:29:54.172Z,69.07
2023-03-03T12:32:33.550Z,86.63
2023-03-03T12:35:18.268Z,82.23
2023-03-03T12:37:54.453Z,87.00
2023-03-03T12:40:35.488Z,92.10
2023-03-03T12:43:23.607Z,73.67
2023-03-03T12:45:59.677Z,63.47
2023-03-03T12:48:30.040Z,80.70
2023-03-03T12:50:57.556Z,91.77
2023-03-03T12:53:43.660Z,88.30
2023-03-03T12:56:18.951Z,99.67
2023-03-03T12:58:49.879Z,94.90
2023-03-03T13:01:33.252Z,85.77
2023-03-03T13:04:09.775Z,72.07
2023-03-03T13:06:45.265Z,80.90
2023-03-03T13:09:28.004Z,88.03
2023-03-03T13:11:55.602Z,91.30
2023-03-03T13:14:32.357Z,51.97
2023-03-03T13:17:29.431Z,100.50
2023-03-03T13:20:01.548Z,91.83
2023-03-03T13:22:32.201Z,80.93
2023-03-03T13:25:05.745Z,86.03
2023-03-03T13:27:36.290Z,85.80
2023-03-03T13:30:16.615Z,71.93
2023-03-03T13:32:47.784Z,100.30
2023-03-03T13:35:21.017Z,103.47
2023-03-03T13:37:55.614Z,86.77
2023-03-03T13:40:25.262Z,90.80
2023-03-03T13:42:52.811Z,78.63
2023-03-03T13:45:26.497Z,80.90
2023-03-03T13:48:09.444Z,77.10
2023-03-03T13:50:37.061Z,77.00
2023-03-03T13:53:23.540Z,78.90
2023-03-03T13:55:51.345Z,65.23
2023-03-03T13:58:42.017Z,79.20
2023-03-03T14:01:22.660Z,66.20
2023-03-03T14:03:58.704Z,63.03
2023-03-03T14:06:27.158Z,55.33
2023-03-03T14:08:57.581Z,77.00
2023-03-03T14:11:28.052Z,72.63
2023-03-03T14:14:16.894Z,54.77
2023-03-03T14:16:44.593Z,75.40
2023-03-03T14:19:17.815Z,69.43
2023-03-03T14:21:51.209Z,53.70
2023-03-03T14:24:20.198Z,67.17
2023-03-03T14:26:49.097Z,65.77
2023-03-03T14:29:22.581Z,63.20
2023-03-03T14:31:50.156Z,54.43
2023-03-03T14:34:23.893Z,64.53
2023-03-03T14:36:52.646Z,62.37
2023-03-03T14:39:36.924Z,55.30
2023-03-03T14:42:15.578Z,60.50
2023-03-03T14:44:46.137Z,58.87
2023-03-03T14:47:19.578Z,55.63
2023-03-03T14:49:47.238Z,62.17
2023-03-03T14:52:17.543Z,49.50
2023-03-03T14:54:55.619Z,56.80
2023-03-03T14:57:38.264Z,46.40
2023-03-03T15:00:14.997Z,53.20
2023-03-03T15:03:05.180Z,52.10
2023-03-03T15:05:33.489Z,45.77
2023-03-03T15:08:07.027Z,55.53
2023-03-03T15:10:37.638Z,47.87
2023-03-03T15:13:20.274Z,51.80
2023-03-03T15:15:53.937Z,45.97
2023-03-03T15:18:21.500Z,41.13
2023-03-03T15:20:53.549Z,42.33
2023-03-03T15:23:33.519Z,44.50
2023-03-03T15:26:19.731Z,39.63
2023-03-03T15:28:56.635Z,44.10
2023-03-03T15:31:24.290Z,46.07
2023-03-03T15:33:54.932Z,44.27
2023-03-03T15:36:25.508Z,43.53
2023-03-03T15:39:08.371Z,37.63
2023-03-03T15:41:43.262Z,39.73
2023-03-03T15:44:20.155Z,35.17
2023-03-03T15:46:50.623Z,34.93
2023-03-03T15:49:30.644Z,34.43
2023-03-03T15:52:03.752Z,25.67
2023-03-03T15:54:36.530Z,32.83
2023-03-03T15:57:24.452Z,29.07
2023-03-03T16:00:10.788Z,27.57
2023-03-03T16:02:43.667Z,28.23
2023-03-03T16:05:22.964Z,25.95
2023-03-03T16:07:59.532Z,29.77
2023-03-03T16:10:30.295Z,26.77
2023-03-03T16:13:09.026Z,25.27
2023-03-03T16:15:49.066Z,25.67
2023-03-03T16:18:33.617Z,28.30
2023-03-03T16:21:20.066Z,25.53
2023-03-03T16:23:49.571Z,27.00
2023-03-03T16:26:35.625Z,25.63
2023-03-03T16:29:03.311Z,23.83
2023-03-03T16:32:05.355Z,27.93
2023-03-03T16:34:43.525Z,21.57
2023-03-03T16:37:13.837Z,25.50
2023-03-03T16:40:03.467Z,25.17
2023-03-03T16:42:35.585Z,23.70
2023-03-03T16:45:21.705Z,23.97
2023-03-03T16:47:58.589Z,23.20
2023-03-03T16:50:26.187Z,24.63
2023-03-03T16:53:01.863Z,25.20
2023-03-03T16:55:32.909Z,26.27
2023-03-03T16:58:03.590Z,25.07
2023-03-03T17:00:36.221Z,23.40
2023-03-03T17:03:03.772Z,25.23
2023-03-03T17:05:40.335Z,22.67
2023-03-03T17:08:26.379Z,21.73
2023-03-03T17:11:23.588Z,24.20
2023-03-03T17:14:01.296Z,24.93
2023-03-03T17:16:46.080Z,29.33
2023-03-03T17:19:30.804Z,25.87
2023-03-03T17:21:58.581Z,26.10
2023-03-03T17:24:35.107Z,23.47
2023-03-03T17:27:08.910Z,25.23
2023-03-03T17:29:46.437Z,26.13
2023-03-03T17:32:24.095Z,26.87
2023-03-03T17:35:07.921Z,25.53
2023-03-03T17:37:35.590Z,25.03
2023-03-03T17:40:12.336Z,24.17
2023-03-03T17:42:54.958Z,27.47
2023-03-03T17:45:23.895Z,29.03
2023-03-03T17:47:57.565Z,30.30
2023-03-03T17:50:43.546Z,31.83
2023-03-03T17:53:23.923Z,27.70
2023-03-03T17:56:09.745Z,30.80
2023-03-03T17:58:45.847Z,26.67
2023-03-03T18:01:19.580Z,32.50
2023-03-03T18:04:05.874Z,27.87
2023-03-03T18:06:42.144Z,31.37
2023-03-03T18:09:14.602Z,33.90
2023-03-03T18:11:57.684Z,31.33
2023-03-03T18:14:40.598Z,37.87
2023-03-03T18:17:11.256Z,30.83
2023-03-03T18:19:57.788Z,29.67
2023-03-03T18:22:45.247Z,32.33
2023-03-03T18:25:12.819Z,32.03
2023-03-03T18:27:44.321Z,40.70
2023-03-03T18:30:17.906Z,45.83
2023-03-03T18:32:59.868Z,65.93
2023-03-03T18:35:33.535Z,56.40
2023-03-03T18:38:16.204Z,50.20
2023-03-03T18:40:57.159Z,39.57
2023-03-03T18:43:43.081Z,42.63
2023-03-03T18:46:23.233Z,44.90
2023-03-03T18:48:56.073Z,36.73
2023-03-03T18:51:50.057Z,41.60
2023-03-03T18:54:17.606Z,35.07
2023-03-03T18:56:45.106Z,33.30
2023-03-03T18:59:32.965Z,33.47
2023-03-03T19:02:18.203Z,31.50
2023-03-03T19:04:48.671Z,32.57
2023-03-03T19:07:25.374Z,31.67
2023-03-03T19:10:02.055Z,31.73
2023-03-03T19:12:43.911Z,32.37
2023-03-03T19:15:31.755Z,37.10
2023-03-03T19:18:01.286Z,34.27
2023-03-03T19:20:38.747Z,29.33
2023-03-03T19:23:07.979Z,32.63
2023-03-03T19:25:35.549Z,32.97
2023-03-03T19:28:03.120Z,29.90
2023-03-03T19:30:36.526Z,33.47
2023-03-03T19:33:22.760Z,34.00
2023-03-03T19:36:02.557Z,33.07
2023-03-03T19:38:30.061Z,30.87
2023-03-03T19:41:16.620Z,29.77
2023-03-03T19:43:59.548Z,34.60
2023-03-03T19:46:27.197Z,31.20
2023-03-03T19:49:13.468Z,26.23
2023-03-03T19:51:44.550Z,28.07
2023-03-03T19:54:15.235Z,23.13
2023-03-03T19:56:46.419Z,26.03
2023-03-03T19:59:37.758Z,23.40
2023-03-03T20:02:14.260Z,23.50
2023-03-03T20:04:41.840Z,26.70
2023-03-03T20:07:28.244Z,25.23
2023-03-03T20:09:58.815Z,34.30
2023-03-03T20:12:30.721Z,31.33
2023-03-03T20:15:09.743Z,35.50
2023-03-03T20:17:44.038Z,30.33
2023-03-03T20:20:30.164Z,28.30
2023-03-03T20:23:16.452Z,28.67
2023-03-03T20:25:47.000Z,38.20
2023-03-03T20:28:14.507Z,33.50
2023-03-03T20:30:54.614Z,32.80
2023-03-03T20:33:27.773Z,30.87
2023-03-03T20:35:58.355Z,25.47
2023-03-03T20:38:31.852Z,24.73
2023-03-03T20:41:08.408Z,21.43
2023-03-03T20:43:54.107Z,23.80
2023-03-03T20:46:32.943Z,25.57
2023-03-03T20:49:09.647Z,22.20
2023-03-03T20:51:56.122Z,21.80
2023-03-03T20:54:28.970Z,24.70
2023-03-03T20:57:08.799Z,23.10
2023-03-03T20:59:40.166Z,23.57
2023-03-03T21:02:07.706Z,24.73
2023-03-03T21:04:35.263Z,24.00
2023-03-03T21:07:04.241Z,24.20
2023-03-03T21:09:32.920Z,27.87
2023-03-03T21:12:02.055Z,26.07
2023-03-03T21:14:30.988Z,24.07
2023-03-03T21:16:59.901Z,21.77
2023-03-03T21:19:28.821Z,25.80
2023-03-03T21:21:56.711Z,25.93
2023-03-03T21:24:45.304Z,26.07
2023-03-03T21:27:26.461Z,25.90
2023-03-03T21:30:03.175Z,27.10
2023-03-03T21:32:38.746Z,27.43
2023-03-03T21:35:07.977Z,26.73
2023-03-03T21:37:51.950Z,25.93
2023-03-03T21:40:21.429Z,24.53
2023-03-03T21:42:49.080Z,24.20
2023-03-03T21:45:16.860Z,31.83
2023-03-03T21:47:44.353Z,28.07
2023-03-03T21:50:11.950Z,26.73
2023-03-03T21:52:39.538Z,29.00
2023-03-03T21:55:07.411Z,34.93
2023-03-03T21:57:35.002Z,28.27
2023-03-03T22:00:02.829Z,33.10
2023-03-03T22:02:30.389Z,27.40
2023-03-03T22:04:57.950Z,30.50
2023-03-03T22:07:25.628Z,39.83
2023-03-03T22:09:53.100Z,28.47
2023-03-03T22:12:20.651Z,22.10
2023-03-03T22:14:48.180Z,24.77
2023-03-03T22:17:15.779Z,21.10
2023-03-03T22:19:43.250Z,21.30
2023-03-03T22:22:10.868Z,23.53
2023-03-03T22:24:38.371Z,22.87
2023-03-03T22:27:05.887Z,21.60
2023-03-03T22:29:33.357Z,17.43
2023-03-03T22:32:00.924Z,16.67
2023-03-03T22:34:28.584Z,17.70
2023-03-03T22:36:56.202Z,11.87
2023-03-03T22:39:23.718Z,12.30
2023-03-03T22:41:51.286Z,10.13
2023-03-03T22:44:18.772Z,5.67
2023-03-03T22:46:46.304Z,8.57
2023-03-03T22:49:13.826Z,6.00
2023-03-03T22:51:41.432Z,7.33
2023-03-03T22:54:09.003Z,5.57
2023-03-03T22:56:36.555Z,5.27
2023-03-03T22:59:04.056Z,7.10
2023-03-03T23:01:31.619Z,8.13
2023-03-03T23:03:59.103Z,7.57
2023-03-03T23:06:26.706Z,5.37
2023-03-03T23:08:54.218Z,9.00
2023-03-03T23:11:21.789Z,5.03
2023-03-03T23:13:49.305Z,4.50
2023-03-03T23:16:16.915Z,4.70
2023-03-03T23:18:44.403Z,9.67
2023-03-03T23:21:11.983Z,11.47
2023-03-03T23:23:39.500Z,7.93
2023-03-03T23:26:07.020Z,5.80
2023-03-03T23:28:34.555Z,8.13
2023-03-03T23:31:02.245Z,9.40
2023-03-03T23:33:29.809Z,6.50
2023-03-03T23:35:57.347Z,9.03
2023-03-03T23:38:24.866Z,8.37
2023-03-03T23:40:52.439Z,9.17
2023-03-03T23:43:19.927Z,5.57
2023-03-03T23:45:47.500Z,8.13
2023-03-03T23:48:14.993Z,8.53
2023-03-03T23:50:42.535Z,8.90
2023-03-03T23:53:10.056Z,7.50
2023-03-03T23:55:37.726Z,7.83
2023-03-03T23:58:06.151Z,8.53
